Summerville, Illinois
Current Conditions -  °F | °C
As of 1:50 PM on Friday 31 Oct 2014 (Local Time) from KALN Reporting Station
Broken Clouds Broken Clouds  
Wind Chill: 37°   Ceiling: 4500
Heat Index: 45°   Visibility: 10mi
Dew Point: 19°   Wind: 20mph
Humidity: 37%   Direction: 320°NW
Pressure: 30.28"   Gusts: 26mph
Location:  39.2057°N, 90.1607°W
Report Text: KALN 311850Z 32017G23KT 10SM BKN045 07/M07 A3028
Loading
Personal Weather Stations






























Interactive Weather Map
Tropical Storm Tracking
New forecast layout! Learn more

10-Day Weather Forecast

Advertisements
Track Severe Weather on mobile